Time;durP1;ratioP1;P1;durP2;ratioP2;P2;SDS_P1;SDS_P2;PMS_P1;PMS_P2;Temp;Humidity;BMP_temperature;BMP_pressure;BME280_temperature;BME280_humidity;BME280_pressure;Samples;Min_cycle;Max_cycle;Signal;HPM_P1;HPM_P2
2021/06/13 00:01:27;;;;;;;6.50;1.08;;;;;;;14.90;55.79;101084.22;4905312;28;100528;-85
2021/06/13 00:03:53;;;;;;;4.90;1.20;;;;;;;14.92;55.98;101077.41;4939980;28;98750;-75
2021/06/13 00:06:19;;;;;;;4.32;1.00;;;;;;;15.06;55.41;101090.38;4907813;28;102605;-75
2021/06/13 00:08:45;;;;;;;2.67;0.90;;;;;;;14.97;55.61;101101.81;4893701;28;97955;-85
2021/06/13 00:11:11;;;;;;;5.00;1.08;;;;;;;14.94;55.55;101098.84;4918951;28;126824;-75
2021/06/13 00:13:37;;;;;;;4.43;1.27;;;;;;;15.01;55.34;101098.53;4894189;28;98729;-75
2021/06/13 00:16:04;;;;;;;4.53;1.27;;;;;;;14.96;55.07;101108.31;4902689;28;98087;-86
2021/06/13 00:18:31;;;;;;;4.90;1.23;;;;;;;14.79;55.63;101105.19;4922634;28;100331;-75
2021/06/13 00:20:57;;;;;;;6.05;1.23;;;;;;;14.82;56.12;101112.78;4922902;28;109745;-74
2021/06/13 00:23:23;;;;;;;4.03;1.20;;;;;;;14.74;55.94;101110.66;4921966;28;126123;-74
2021/06/13 00:25:49;;;;;;;4.75;1.40;;;;;;;14.58;56.33;101118.03;4907114;28;98485;-85
2021/06/13 00:28:15;;;;;;;4.70;1.40;;;;;;;14.74;56.49;101118.78;4938042;28;108097;-75
2021/06/13 00:30:41;;;;;;;5.32;1.40;;;;;;;14.77;56.47;101122.81;4923035;28;99607;-75
2021/06/13 00:33:07;;;;;;;5.30;1.50;;;;;;;14.75;56.17;101131.25;4905922;28;110828;-85
2021/06/13 00:35:34;;;;;;;3.42;1.10;;;;;;;14.70;57.18;101134.00;4923417;28;98211;-74
2021/06/13 00:38:00;;;;;;;5.38;1.40;;;;;;;14.71;57.20;101135.63;4919739;28;98823;-84
2021/06/13 00:40:26;;;;;;;3.55;1.35;;;;;;;14.58;56.95;101130.78;4904292;28;98629;-83
2021/06/13 00:42:53;;;;;;;4.00;1.40;;;;;;;14.67;57.45;101129.13;4928038;28;106995;-86
2021/06/13 00:45:21;;;;;;;6.55;1.60;;;;;;;14.54;57.51;101127.81;4923059;28;111073;-74
2021/06/13 00:47:47;;;;;;;4.93;1.15;;;;;;;14.62;57.61;101134.56;4906361;28;97981;-85
2021/06/13 00:50:25;;;;;;;4.72;1.55;;;;;;;14.50;57.32;101134.88;4939258;28;101850;-74
2021/06/13 00:52:51;;;;;;;5.60;1.67;;;;;;;14.44;57.75;101131.34;4937619;28;98729;-74
2021/06/13 00:55:17;;;;;;;5.00;1.50;;;;;;;14.08;58.65;101133.34;4903472;28;125620;-84
2021/06/13 00:57:43;;;;;;;5.13;1.40;;;;;;;14.39;58.22;101134.09;4924184;28;115952;-84
2021/06/13 01:00:10;;;;;;;7.90;1.45;;;;;;;14.33;58.32;101129.75;4937648;28;127520;-74
2021/06/13 01:02:36;;;;;;;4.63;1.33;;;;;;;14.32;58.32;101140.88;4874332;28;101435;-73
2021/06/13 01:05:03;;;;;;;3.45;1.38;;;;;;;14.12;58.97;101139.84;4903949;28;98393;-82
2021/06/13 01:07:48;;;;;;;6.40;1.75;;;;;;;14.32;58.98;101135.47;4919373;28;98141;-84
2021/06/13 01:10:56;;;;;;;5.53;1.60;;;;;;;14.14;59.10;101137.66;4919408;28;108721;-83
2021/06/13 01:13:47;;;;;;;3.70;1.35;;;;;;;13.83;59.93;101142.31;4921634;28;114645;-73
2021/06/13 01:16:23;;;;;;;4.78;1.40;;;;;;;14.02;59.33;101136.34;4939016;28;97942;-84
2021/06/13 01:18:54;;;;;;;6.63;1.65;;;;;;;14.04;59.95;101147.75;4939663;28;98268;-74
2021/06/13 01:21:28;;;;;;;6.72;1.67;;;;;;;14.04;58.96;101136.91;4907346;28;98791;-83
2021/06/13 01:24:06;;;;;;;4.68;1.40;;;;;;;14.20;59.34;101141.19;4907211;28;97980;-84
2021/06/13 01:27:02;;;;;;;7.05;1.52;;;;;;;14.15;59.32;101152.06;4938607;28;98183;-83
2021/06/13 01:29:39;;;;;;;5.75;1.70;;;;;;;13.99;60.27;101146.66;4941502;28;98086;-83
2021/06/13 01:32:10;;;;;;;3.97;1.67;;;;;;;14.11;59.89;101150.94;4907836;28;98946;-83
2021/06/13 01:34:43;;;;;;;6.93;1.80;;;;;;;13.96;59.63;101158.03;4916329;28;98730;-83
2021/06/13 01:37:13;;;;;;;4.53;1.80;;;;;;;13.78;59.85;101152.38;4938017;28;112730;-74
2021/06/13 01:39:40;;;;;;;4.38;1.63;;;;;;;14.07;60.12;101156.13;4907446;28;97865;-83
2021/06/13 01:42:07;;;;;;;4.20;1.60;;;;;;;13.95;60.15;101152.88;4919759;28;128016;-73
2021/06/13 01:44:33;;;;;;;4.70;1.88;;;;;;;13.73;60.08;101155.91;4890828;28;105947;-84
2021/06/13 01:47:00;;;;;;;5.13;1.40;;;;;;;13.88;60.54;101164.00;4902119;28;127327;-84
2021/06/13 01:49:26;;;;;;;4.60;1.50;;;;;;;13.91;60.62;101168.06;4903124;28;98210;-82
2021/06/13 01:51:52;;;;;;;4.13;1.77;;;;;;;13.65;60.74;101164.56;4902441;28;128178;-73
2021/06/13 01:54:21;;;;;;;7.15;2.30;;;;;;;13.87;60.61;101165.09;4904308;28;128010;-83
2021/06/13 01:56:50;;;;;;;4.20;1.63;;;;;;;13.86;60.64;101163.47;4921591;28;127264;-84
2021/06/13 01:59:17;;;;;;;6.22;1.73;;;;;;;13.90;60.52;101166.44;4922206;28;97910;-73
2021/06/13 02:01:43;;;;;;;5.10;1.80;;;;;;;13.90;60.14;101161.84;4938176;28;97944;-84
2021/06/13 02:04:09;;;;;;;4.35;1.85;;;;;;;13.95;60.56;101166.44;4940833;28;98615;-73
2021/06/13 02:06:37;;;;;;;5.93;1.70;;;;;;;13.89;60.45;101173.75;4925013;28;102667;-74
2021/06/13 02:09:05;;;;;;;5.97;2.08;;;;;;;13.82;60.20;101175.13;4909000;28;100876;-73
2021/06/13 02:11:31;;;;;;;6.45;1.55;;;;;;;13.90;60.05;101180.00;4909383;28;116506;-73
2021/06/13 02:13:58;;;;;;;7.60;1.90;;;;;;;13.95;60.27;101180.81;4907671;28;127918;-73
2021/06/13 02:16:24;;;;;;;5.75;1.70;;;;;;;13.83;60.30;101184.88;4905656;28;100018;-84
2021/06/13 02:18:50;;;;;;;4.82;1.90;;;;;;;13.68;60.14;101188.41;4922799;28;98067;-84
2021/06/13 02:21:16;;;;;;;7.10;1.88;;;;;;;13.84;60.34;101195.44;4905520;28;126798;-83
2021/06/13 02:23:43;;;;;;;6.75;2.00;;;;;;;13.64;60.72;101188.13;4915471;28;106440;-83
2021/06/13 02:26:10;;;;;;;5.28;1.77;;;;;;;13.61;60.75;101202.22;4914665;28;127672;-74
2021/06/13 02:28:39;;;;;;;6.30;2.22;;;;;;;13.62;61.51;101203.84;4940655;28;98047;-84
2021/06/13 02:31:07;;;;;;;4.70;1.90;;;;;;;13.60;60.68;101202.50;4925046;28;98308;-74
2021/06/13 02:33:33;;;;;;;6.55;2.05;;;;;;;13.14;62.19;101210.50;4924831;28;98983;-84
2021/06/13 02:36:00;;;;;;;4.75;1.88;;;;;;;13.39;62.27;101217.88;4923651;28;111389;-73
2021/06/13 02:38:26;;;;;;;6.40;2.10;;;;;;;13.32;62.54;101220.84;4892795;28;97798;-84
2021/06/13 02:40:53;;;;;;;5.97;2.15;;;;;;;13.33;62.45;101222.47;4941606;28;119417;-74
2021/06/13 02:43:20;;;;;;;6.28;2.10;;;;;;;13.50;61.71;101219.53;4931671;28;98328;-84
2021/06/13 02:45:48;;;;;;;7.25;2.33;;;;;;;13.47;61.78;101233.59;4888949;28;111593;-84
2021/06/13 02:48:14;;;;;;;5.38;1.60;;;;;;;13.41;62.26;101237.41;4907062;28;97860;-74
2021/06/13 02:50:41;;;;;;;5.65;2.38;;;;;;;13.24;61.91;101243.84;4921481;28;101397;-83
2021/06/13 02:53:43;;;;;;;4.05;2.05;;;;;;;13.21;61.93;101246.25;4914235;28;125551;-84
2021/06/13 02:56:31;;;;;;;4.53;2.13;;;;;;;13.06;62.89;101251.59;4927212;28;98208;-84
2021/06/13 02:59:31;;;;;;;4.80;2.17;;;;;;;13.03;62.35;101252.94;4911141;28;97789;-74
2021/06/13 03:01:57;;;;;;;6.88;2.30;;;;;;;13.27;61.99;101259.53;4926804;28;98728;-85
2021/06/13 03:04:26;;;;;;;9.25;2.25;;;;;;;13.24;62.09;101264.69;4921297;28;119134;-74
2021/06/13 03:06:57;;;;;;;7.05;2.15;;;;;;;13.35;62.16;101263.63;4890708;28;98673;-74
2021/06/13 03:09:31;;;;;;;4.88;2.15;;;;;;;13.01;63.06;101272.16;4890300;28;97891;-74
2021/06/13 03:11:57;;;;;;;5.95;2.30;;;;;;;13.24;62.41;101268.22;4889057;28;99263;-84
2021/06/13 03:14:26;;;;;;;5.85;1.92;;;;;;;13.23;62.19;101282.81;4887392;28;128071;-74
2021/06/13 03:16:52;;;;;;;5.70;2.42;;;;;;;13.11;62.11;101284.91;4889170;28;100615;-82
2021/06/13 03:19:18;;;;;;;5.25;2.30;;;;;;;13.19;62.36;101281.69;4906580;28;117895;-84
2021/06/13 03:21:46;;;;;;;5.88;2.20;;;;;;;13.15;62.32;101280.59;4923317;28;127716;-84
2021/06/13 03:24:12;;;;;;;7.53;2.40;;;;;;;13.10;62.47;101282.47;4923047;28;98757;-74
2021/06/13 03:26:38;;;;;;;5.40;2.20;;;;;;;13.00;62.61;101281.34;4923933;28;113332;-84
2021/06/13 03:29:04;;;;;;;7.95;2.50;;;;;;;13.27;62.22;101293.94;4938988;28;117855;-74
2021/06/13 03:31:30;;;;;;;5.88;2.40;;;;;;;13.07;62.16;101301.94;4924582;28;103922;-84
2021/06/13 03:33:56;;;;;;;7.72;2.30;;;;;;;12.92;62.49;101305.38;4938861;28;127056;-85
2021/06/13 03:36:23;;;;;;;6.75;2.50;;;;;;;12.89;62.01;101306.75;4907731;28;126897;-85
2021/06/13 03:38:50;;;;;;;6.47;2.28;;;;;;;12.95;62.34;101308.38;4909134;28;98185;-75
2021/06/13 03:41:17;;;;;;;6.75;2.50;;;;;;;12.96;61.73;101315.41;4909008;28;98262;-75
2021/06/13 03:43:43;;;;;;;7.75;2.50;;;;;;;13.07;62.01;101316.28;4926415;28;101144;-84
2021/06/13 03:46:10;;;;;;;7.25;2.25;;;;;;;12.98;61.81;101315.16;4908556;28;127590;-85
2021/06/13 03:48:36;;;;;;;5.72;1.90;;;;;;;13.09;61.81;101319.56;4906934;28;99530;-74
2021/06/13 03:51:03;;;;;;;6.93;2.20;;;;;;;13.17;61.14;101315.53;4924962;28;98270;-85
2021/06/13 03:53:29;;;;;;;5.93;2.50;;;;;;;13.21;61.08;101319.34;4907414;28;99310;-85
2021/06/13 03:56:02;;;;;;;6.22;2.10;;;;;;;13.22;60.87;101323.66;4912193;28;98181;-85
2021/06/13 03:58:28;;;;;;;7.18;2.50;;;;;;;13.09;60.51;101332.28;4890139;28;97846;-86
2021/06/13 04:00:55;;;;;;;6.97;2.47;;;;;;;13.01;60.94;101337.09;4888754;28;100479;-86
2021/06/13 04:03:21;;;;;;;4.93;2.33;;;;;;;12.99;60.82;101331.13;4889306;28;98972;-75
2021/06/13 04:05:47;;;;;;;6.13;2.38;;;;;;;13.16;61.06;101335.53;4889423;28;109777;-74
2021/06/13 04:08:14;;;;;;;4.88;2.30;;;;;;;13.41;60.25;101338.41;4889459;28;98551;-86
2021/06/13 04:10:47;;;;;;;8.25;2.40;;;;;;;13.34;59.98;101334.31;4921938;28;98435;-75
2021/06/13 04:13:14;;;;;;;6.85;2.00;;;;;;;13.15;60.50;101333.91;4890840;28;98331;-75
2021/06/13 04:15:40;;;;;;;5.03;2.35;;;;;;;13.19;60.25;101345.84;4905432;28;99962;-74
2021/06/13 04:18:10;;;;;;;5.55;2.22;;;;;;;13.05;60.13;101341.97;4905562;28;117798;-85
2021/06/13 04:20:36;;;;;;;8.75;2.35;;;;;;;13.14;60.31;101340.41;4900664;28;117105;-75
2021/06/13 04:23:04;;;;;;;7.28;2.20;;;;;;;13.30;60.17;101350.28;4923955;28;127334;-85
2021/06/13 04:25:30;;;;;;;6.07;2.50;;;;;;;13.26;59.95;101357.28;4903772;28;100387;-75
2021/06/13 04:27:56;;;;;;;7.75;1.73;;;;;;;13.45;59.68;101358.47;4894275;28;114546;-85
2021/06/13 04:30:24;;;;;;;5.25;2.08;;;;;;;13.66;59.60;101353.91;4919173;28;128110;-86
2021/06/13 04:32:50;;;;;;;7.07;2.20;;;;;;;13.62;59.15;101354.72;4905308;28;99002;-75
2021/06/13 04:35:16;;;;;;;4.50;2.10;;;;;;;13.73;58.82;101357.19;4873035;28;99485;-86
2021/06/13 04:37:43;;;;;;;9.13;2.20;;;;;;;13.84;58.11;101354.53;4891712;28;102144;-86
2021/06/13 04:40:09;;;;;;;6.68;2.10;;;;;;;13.61;58.76;101362.03;4907606;28;126838;-84
2021/06/13 04:42:36;;;;;;;7.90;2.00;;;;;;;13.70;58.72;101349.59;4904197;28;110457;-85
2021/06/13 04:45:08;;;;;;;6.28;2.10;;;;;;;13.74;59.00;101350.69;4942875;28;97997;-75
2021/06/13 04:47:37;;;;;;;6.73;2.30;;;;;;;13.86;58.43;101360.47;4892358;28;97840;-85
2021/06/13 04:50:04;;;;;;;8.23;2.28;;;;;;;13.92;58.22;101365.66;4904934;28;98296;-75
2021/06/13 04:52:30;;;;;;;9.25;1.98;;;;;;;13.98;58.96;101364.56;4888025;28;114944;-85
2021/06/13 04:55:08;;;;;;;5.45;2.17;;;;;;;14.25;57.61;101363.53;4904975;28;115528;-86
2021/06/13 04:57:58;;;;;;;7.72;2.20;;;;;;;13.89;57.92;101366.19;4929936;28;97767;-74
2021/06/13 05:00:24;;;;;;;5.25;2.05;;;;;;;14.17;57.51;101355.91;4924846;28;101005;-87
2021/06/13 05:02:50;;;;;;;10.65;2.40;;;;;;;14.37;57.47;101355.13;4922757;28;111243;-86
2021/06/13 05:05:17;;;;;;;6.65;2.10;;;;;;;14.57;56.67;101367.88;4924083;28;127484;-75
2021/06/13 05:07:43;;;;;;;5.13;2.10;;;;;;;14.60;56.74;101376.31;4922065;28;97922;-76
2021/06/13 05:10:10;;;;;;;7.53;2.13;;;;;;;14.92;56.03;101370.56;4904961;28;98471;-75
2021/06/13 05:12:51;;;;;;;6.50;2.08;;;;;;;15.04;54.51;101374.88;4892544;28;100999;-86
2021/06/13 05:15:21;;;;;;;5.10;1.80;;;;;;;15.16;54.82;101380.81;4878979;28;100757;-76
2021/06/13 05:17:47;;;;;;;7.55;1.98;;;;;;;15.07;54.54;101387.91;4892171;28;97803;-86
2021/06/13 05:20:14;;;;;;;5.45;1.90;;;;;;;14.97;55.48;101386.03;4891455;28;100689;-86
2021/06/13 05:23:00;;;;;;;6.85;2.03;;;;;;;14.69;55.80;101390.94;4893632;28;98566;-87
2021/06/13 05:25:33;;;;;;;8.20;2.30;;;;;;;15.02;55.07;101382.50;4908027;28;100795;-75
2021/06/13 05:28:00;;;;;;;6.60;2.00;;;;;;;15.14;55.16;101385.72;4923626;28;98074;-76
2021/06/13 05:30:27;;;;;;;6.50;1.85;;;;;;;15.31;53.98;101386.22;4903466;28;99276;-76
2021/06/13 05:32:53;;;;;;;6.45;2.00;;;;;;;15.20;54.83;101379.19;4920538;28;110046;-76
2021/06/13 05:35:20;;;;;;;6.18;2.20;;;;;;;15.23;55.20;101398.47;4921727;28;98160;-76
2021/06/13 05:37:46;;;;;;;7.93;1.88;;;;;;;15.20;53.83;101387.31;4891177;28;97989;-76
2021/06/13 05:40:13;;;;;;;7.22;2.00;;;;;;;15.14;54.10;101397.41;4905212;28;100128;-86
2021/06/13 05:42:39;;;;;;;6.63;1.80;;;;;;;15.51;53.57;101406.25;4905456;28;98419;-76
2021/06/13 05:45:10;;;;;;;5.63;2.20;;;;;;;15.87;51.48;101406.94;4917759;28;127362;-86
2021/06/13 05:47:37;;;;;;;6.77;2.27;;;;;;;16.11;51.92;101404.34;4924482;28;98366;-76
2021/06/13 05:50:05;;;;;;;5.68;2.00;;;;;;;16.05;51.65;101408.19;4905874;28;98788;-76
2021/06/13 05:52:32;;;;;;;6.07;2.00;;;;;;;16.38;51.23;101403.88;4939636;28;98605;-75
2021/06/13 05:54:58;;;;;;;4.97;1.80;;;;;;;17.00;49.56;101401.47;4923507;28;98254;-86
2021/06/13 05:57:31;;;;;;;8.77;2.10;;;;;;;18.54;46.03;101399.19;4907814;28;98047;-75
2021/06/13 06:00:08;;;;;;;4.45;1.90;;;;;;;22.17;37.22;101394.16;4888185;28;99952;-86
2021/06/13 06:02:35;;;;;;;7.10;2.05;;;;;;;23.39;34.76;101394.66;4907215;28;98795;-76
2021/06/13 06:05:01;;;;;;;7.22;2.00;;;;;;;22.65;36.37;101406.06;4887204;28;99742;-75
2021/06/13 06:07:27;;;;;;;5.38;1.80;;;;;;;22.94;36.37;101414.41;4930045;28;104396;-86
2021/06/13 06:09:53;;;;;;;5.47;1.60;;;;;;;22.49;36.45;101416.75;4903012;28;104665;-86
2021/06/13 06:12:19;;;;;;;6.03;1.90;;;;;;;21.10;39.45;101421.91;4921836;28;128235;-76
2021/06/13 06:14:46;;;;;;;6.85;1.85;;;;;;;19.58;42.53;101427.09;4904134;28;97958;-83
2021/06/13 06:17:12;;;;;;;4.40;1.35;;;;;;;19.03;42.04;101429.81;4904299;28;97963;-86
2021/06/13 06:19:39;;;;;;;5.95;1.63;;;;;;;18.63;43.04;101426.63;4921350;28;107800;-77
2021/06/13 06:22:05;;;;;;;6.50;1.77;;;;;;;18.40;44.21;101429.16;4906947;28;98779;-86
2021/06/13 06:24:34;;;;;;;6.60;1.50;;;;;;;18.21;45.41;101441.19;4913021;28;98113;-76
2021/06/13 06:27:00;;;;;;;7.38;2.00;;;;;;;17.93;45.93;101438.31;4903977;28;107541;-75
2021/06/13 06:29:26;;;;;;;7.70;2.00;;;;;;;18.24;44.90;101437.91;4921307;28;108113;-76
2021/06/13 06:31:53;;;;;;;5.57;1.88;;;;;;;18.40;44.80;101440.09;4938141;28;107968;-85
2021/06/13 06:34:19;;;;;;;5.45;1.67;;;;;;;17.97;45.66;101431.16;4916017;28;98535;-86
2021/06/13 06:36:46;;;;;;;7.05;1.70;;;;;;;16.69;48.21;101448.81;4920399;28;103041;-87
2021/06/13 06:39:13;;;;;;;5.93;1.85;;;;;;;17.14;47.61;101452.28;4920618;28;110195;-76
2021/06/13 06:41:39;;;;;;;5.80;1.30;;;;;;;17.36;46.64;101451.75;4891191;28;101277;-85
2021/06/13 06:44:07;;;;;;;3.95;1.33;;;;;;;17.70;46.78;101436.41;4922326;28;98538;-85
2021/06/13 06:46:33;;;;;;;4.60;1.50;;;;;;;17.61;46.75;101449.88;4927629;28;98107;-85
2021/06/13 06:48:59;;;;;;;5.82;1.55;;;;;;;16.93;47.51;101453.53;4938853;28;98927;-85
2021/06/13 06:51:26;;;;;;;5.60;1.30;;;;;;;17.43;45.77;101446.78;4887408;28;126429;-85
2021/06/13 06:53:57;;;;;;;5.75;1.65;;;;;;;17.46;46.30;101441.88;4901390;28;100122;-76
2021/06/13 06:56:23;;;;;;;6.43;1.30;;;;;;;17.43;46.72;101452.22;4922930;28;98214;-84
2021/06/13 06:58:50;;;;;;;5.30;1.45;;;;;;;17.13;46.54;101460.72;4884485;28;103130;-75
2021/06/13 07:01:16;;;;;;;5.07;1.48;;;;;;;16.91;47.74;101442.97;4887160;28;101977;-85
2021/06/13 07:03:42;;;;;;;5.35;1.40;;;;;;;16.77;48.44;101465.66;4936225;28;119029;-85
2021/06/13 07:06:08;;;;;;;5.70;1.48;;;;;;;16.78;47.47;101465.41;4936460;28;99455;-85
2021/06/13 07:08:34;;;;;;;6.68;1.60;;;;;;;16.84;48.48;101461.53;4937640;28;121318;-85
2021/06/13 07:11:00;;;;;;;5.68;1.65;;;;;;;17.07;48.01;101449.06;4892522;28;129066;-76
2021/06/13 07:13:26;;;;;;;5.97;1.60;;;;;;;16.57;48.45;101459.25;4922114;28;98381;-84
2021/06/13 07:15:52;;;;;;;7.05;1.75;;;;;;;17.46;47.48;101450.84;4923620;28;117999;-85
2021/06/13 07:18:18;;;;;;;5.03;1.52;;;;;;;17.43;47.38;101465.06;4921863;28;126050;-74
2021/06/13 07:20:44;;;;;;;6.93;1.60;;;;;;;17.21;47.86;101467.44;4904516;28;127121;-75
2021/06/13 07:23:11;;;;;;;5.50;1.77;;;;;;;17.06;48.75;101471.16;4937353;28;123967;-74
2021/06/13 07:25:37;;;;;;;7.22;1.88;;;;;;;16.79;48.47;101461.56;4920763;28;119155;-76
2021/06/13 07:28:05;;;;;;;4.47;1.38;;;;;;;16.69;49.08;101480.66;4918368;28;98805;-84
2021/06/13 07:30:31;;;;;;;4.43;1.27;;;;;;;17.03;48.08;101475.25;4922203;28;98795;-85
2021/06/13 07:32:57;;;;;;;6.13;1.50;;;;;;;16.97;48.25;101478.31;4903629;28;99960;-85
2021/06/13 07:35:23;;;;;;;5.90;1.55;;;;;;;17.30;48.23;101479.38;4921486;28;97797;-84
2021/06/13 07:37:49;;;;;;;6.38;1.60;;;;;;;17.01;49.22;101479.34;4938605;28;128450;-84
2021/06/13 07:40:18;;;;;;;5.88;1.33;;;;;;;17.16;47.46;101480.03;4917838;28;119587;-75
2021/06/13 07:42:44;;;;;;;5.40;1.55;;;;;;;17.42;46.91;101486.03;4902847;28;98176;-84
2021/06/13 07:45:11;;;;;;;5.72;1.38;;;;;;;17.02;47.81;101492.72;4926324;28;101563;-75
2021/06/13 07:47:39;;;;;;;7.72;1.40;;;;;;;17.00;48.09;101502.25;4904754;28;98486;-85
2021/06/13 07:50:07;;;;;;;5.53;1.50;;;;;;;17.22;47.65;101493.63;4918409;28;99030;-75
2021/06/13 07:52:33;;;;;;;5.22;1.27;;;;;;;17.45;47.73;101502.91;4920657;28;98172;-75
2021/06/13 07:54:59;;;;;;;5.20;1.35;;;;;;;16.61;48.55;101495.69;4938454;28;97908;-84
2021/06/13 07:57:25;;;;;;;6.63;1.48;;;;;;;16.86;47.86;101502.09;4921411;28;101791;-84
2021/06/13 07:59:51;;;;;;;4.90;1.08;;;;;;;16.36;47.55;101501.31;4916115;28;126906;-85
2021/06/13 08:02:17;;;;;;;5.20;1.30;;;;;;;16.48;49.18;101504.50;4935500;28;111053;-75
2021/06/13 08:04:49;;;;;;;4.55;1.50;;;;;;;16.29;49.01;101507.06;4916857;28;117640;-75
2021/06/13 08:07:15;;;;;;;5.20;1.30;;;;;;;16.08;49.55;101495.47;4895684;28;98968;-75
2021/06/13 08:09:41;;;;;;;5.50;1.23;;;;;;;16.05;50.05;101512.34;4928890;28;127485;-75
2021/06/13 08:12:08;;;;;;;6.18;1.42;;;;;;;15.78;51.28;101506.47;4902166;28;127644;-84
2021/06/13 08:14:34;;;;;;;5.18;1.30;;;;;;;15.68;50.46;101504.59;4915664;28;104128;-84
2021/06/13 08:17:00;;;;;;;5.82;1.30;;;;;;;15.43;51.22;101516.31;4912305;28;126655;-84
2021/06/13 08:19:26;;;;;;;3.88;1.23;;;;;;;15.45;51.23;101525.00;4917377;28;101273;-75
2021/06/13 08:21:52;;;;;;;3.75;1.08;;;;;;;15.27;51.27;101520.94;4900162;28;99973;-74
2021/06/13 08:24:18;;;;;;;5.60;1.40;;;;;;;15.43;51.53;101524.44;4899818;28;118166;-84
2021/06/13 08:26:44;;;;;;;5.47;1.27;;;;;;;15.31;51.32;101523.94;4917758;28;127795;-82
2021/06/13 08:29:10;;;;;;;5.75;1.23;;;;;;;15.44;51.18;101516.03;4936893;28;107669;-84
2021/06/13 08:31:36;;;;;;;5.07;1.20;;;;;;;15.89;50.63;101513.50;4921102;28;98449;-75
2021/06/13 08:34:03;;;;;;;4.32;1.02;;;;;;;15.76;49.51;101517.63;4936543;28;117693;-74
2021/06/13 08:36:29;;;;;;;6.18;1.15;;;;;;;15.68;48.43;101515.47;4893519;28;98296;-74
2021/06/13 08:38:55;;;;;;;4.13;1.10;;;;;;;16.28;48.77;101518.22;4917108;28;115730;-74
2021/06/13 08:41:22;;;;;;;4.10;0.90;;;;;;;16.83;47.33;101521.72;4920030;28;105682;-83
2021/06/13 08:43:50;;;;;;;6.57;1.10;;;;;;;16.67;45.19;101510.91;4919310;28;99147;-82
2021/06/13 08:46:16;;;;;;;4.88;1.10;;;;;;;16.82;45.63;101509.19;4936693;28;105129;-75
2021/06/13 08:48:45;;;;;;;5.03;0.82;;;;;;;17.62;44.09;101509.53;4919954;28;113578;-84
2021/06/13 08:51:11;;;;;;;5.40;0.80;;;;;;;18.51;42.35;101510.88;4936445;28;97965;-84
2021/06/13 08:53:43;;;;;;;3.78;0.77;;;;;;;19.69;40.27;101504.28;4919911;28;98304;-84
2021/06/13 08:56:13;;;;;;;;;;;;;;;18.81;41.45;101510.47;4936995;28;98155;-84
2021/06/13 08:58:39;;;;;;;3.42;1.30;;;;;;;18.07;39.37;101512.03;4937958;28;99701;-85
2021/06/13 09:01:06;;;;;;;8.40;3.15;;;;;;;17.51;40.60;101515.38;4935359;28;126494;-75
2021/06/13 09:03:33;;;;;;;5.60;0.93;;;;;;;17.05;40.82;101522.06;4902861;28;117161;-74
2021/06/13 09:05:59;;;;;;;3.38;0.60;;;;;;;16.72;41.42;101522.84;4919338;28;98283;-75
2021/06/13 09:08:36;;;;;;;3.67;0.40;;;;;;;16.90;42.28;101531.19;4899867;28;128711;-75
2021/06/13 09:11:02;;;;;;;3.30;0.63;;;;;;;16.62;43.56;101540.91;4919732;28;98372;-75
2021/06/13 09:13:30;;;;;;;4.20;1.20;;;;;;;16.85;43.74;101541.28;4922316;28;97865;-75
2021/06/13 09:16:01;;;;;;;3.78;1.00;;;;;;;16.80;42.92;101542.16;4939649;28;98543;-75
2021/06/13 09:18:46;;;;;;;3.72;0.77;;;;;;;16.66;42.23;101541.13;4907134;28;99264;-74
2021/06/13 09:21:20;;;;;;;3.60;0.73;;;;;;;16.51;43.20;101547.50;4922387;28;100234;-75
2021/06/13 09:23:46;;;;;;;2.95;0.90;;;;;;;16.61;44.05;101557.50;4939698;28;98311;-74
2021/06/13 09:26:16;;;;;;;4.40;1.05;;;;;;;16.66;43.64;101547.41;4905344;28;126961;-75
2021/06/13 09:28:44;;;;;;;4.60;1.33;;;;;;;16.79;44.33;101550.63;4921564;28;99232;-75
2021/06/13 09:31:20;;;;;;;2.60;0.90;;;;;;;16.71;43.55;101549.28;4929093;28;110987;-75
2021/06/13 09:33:47;;;;;;;5.90;1.02;;;;;;;16.93;43.51;101557.03;4907397;28;98208;-84
2021/06/13 09:36:30;;;;;;;3.63;0.60;;;;;;;16.99;43.98;101550.47;4939165;28;98698;-75
2021/06/13 09:39:01;;;;;;;3.72;0.90;;;;;;;17.18;43.11;101561.47;4924068;28;99125;-84
2021/06/13 09:41:27;;;;;;;4.88;1.05;;;;;;;16.88;43.53;101559.78;4921569;28;98782;-83
2021/06/13 09:44:01;;;;;;;6.15;0.73;;;;;;;16.73;44.26;101568.03;4936416;28;117736;-84
2021/06/13 09:46:29;;;;;;;5.22;0.90;;;;;;;16.49;44.42;101570.63;4922554;28;98968;-75
2021/06/13 09:49:06;;;;;;;4.90;1.30;;;;;;;16.43;44.53;101575.28;4916831;28;99185;-84
2021/06/13 09:51:35;;;;;;;5.13;1.30;;;;;;;16.58;45.15;101571.66;4939570;28;98400;-75
2021/06/13 09:54:16;;;;;;;6.47;2.05;;;;;;;16.49;44.98;101576.88;4939519;28;97844;-75
2021/06/13 09:56:43;;;;;;;7.40;2.20;;;;;;;16.37;44.79;101576.41;4904657;28;98254;-83
2021/06/13 09:59:13;;;;;;;10.15;3.95;;;;;;;16.49;45.81;101587.75;4907403;28;101388;-75
2021/06/13 10:01:41;;;;;;;5.10;1.45;;;;;;;16.42;45.14;101587.25;4938743;28;98178;-75
2021/06/13 10:04:18;;;;;;;8.00;3.60;;;;;;;16.51;45.56;101588.31;4905086;28;98715;-75
2021/06/13 10:06:48;;;;;;;4.53;1.98;;;;;;;16.66;45.84;101590.09;4939866;28;98765;-75
2021/06/13 10:09:15;;;;;;;4.40;2.25;;;;;;;16.63;45.14;101582.53;4901461;28;99003;-74
2021/06/13 10:11:41;;;;;;;5.60;1.42;;;;;;;16.58;46.30;101585.25;4922980;28;98218;-75
2021/06/13 10:14:13;;;;;;;4.63;1.20;;;;;;;16.29;45.96;101587.84;4939980;28;98010;-85
2021/06/13 10:16:43;;;;;;;4.10;1.30;;;;;;;16.14;45.99;101586.00;4936778;28;112612;-74
2021/06/13 10:19:15;;;;;;;5.18;1.50;;;;;;;16.12;46.59;101589.00;4923377;28;98443;-75
2021/06/13 10:21:42;;;;;;;4.18;1.33;;;;;;;16.42;47.17;101593.50;4907009;28;98547;-84
2021/06/13 10:24:18;;;;;;;5.70;1.65;;;;;;;16.45;46.83;101584.78;4939911;28;98220;-75
2021/06/13 10:26:53;;;;;;;6.13;1.30;;;;;;;16.10;46.72;101601.25;4897215;28;98697;-83
2021/06/13 10:29:20;;;;;;;5.80;0.95;;;;;;;16.33;46.74;101587.03;4923449;28;98965;-75
2021/06/13 10:31:48;;;;;;;4.43;0.90;;;;;;;16.48;45.88;101594.31;4937738;28;98721;-75
2021/06/13 10:34:15;;;;;;;4.88;1.20;;;;;;;16.62;45.41;101587.16;4920106;28;98273;-75
2021/06/13 10:36:41;;;;;;;4.82;0.95;;;;;;;16.69;45.57;101589.56;4922713;28;98617;-85
2021/06/13 10:39:16;;;;;;;4.57;1.10;;;;;;;17.05;45.20;101581.19;4938029;28;106966;-85
2021/06/13 10:41:42;;;;;;;3.78;1.15;;;;;;;17.16;44.82;101585.47;4903727;28;100804;-85
2021/06/13 10:44:11;;;;;;;4.03;1.00;;;;;;;17.14;44.50;101585.75;4923348;28;107371;-84
2021/06/13 10:46:38;;;;;;;5.80;1.00;;;;;;;17.26;44.53;101585.38;4922657;28;98982;-84
2021/06/13 10:49:06;;;;;;;4.05;1.00;;;;;;;17.48;45.45;101586.81;4921061;28;99102;-75
2021/06/13 10:51:45;;;;;;;4.40;1.00;;;;;;;17.87;43.09;101584.81;4921584;28;100007;-75
2021/06/13 10:54:27;;;;;;;4.93;0.85;;;;;;;18.00;43.62;101587.94;4932962;28;97864;-74
2021/06/13 10:57:13;;;;;;;5.72;1.08;;;;;;;17.86;43.95;101582.38;4939228;28;98600;-74
2021/06/13 10:59:41;;;;;;;4.40;1.40;;;;;;;17.67;43.86;101579.56;4917601;28;98452;-75
2021/06/13 11:02:13;;;;;;;2.75;0.80;;;;;;;17.45;44.43;101587.38;4904137;28;98016;-83
2021/06/13 11:04:55;;;;;;;5.25;1.15;;;;;;;17.13;46.00;101599.63;4939054;28;98010;-83
2021/06/13 11:07:40;;;;;;;6.30;1.40;;;;;;;17.41;46.55;101598.06;4922176;28;98799;-83
2021/06/13 11:10:10;;;;;;;5.72;1.58;;;;;;;17.22;45.67;101594.41;4932131;28;98706;-74
2021/06/13 11:13:09;;;;;;;6.28;1.50;;;;;;;17.27;46.04;101599.81;4939594;28;98333;-83
2021/06/13 11:15:38;;;;;;;4.25;1.75;;;;;;;17.39;46.27;101594.81;4938152;28;99811;-75
2021/06/13 11:18:07;;;;;;;4.65;1.90;;;;;;;18.36;44.54;101589.16;4939717;28;99010;-83
2021/06/13 11:23:15;;;;;;;3.75;1.30;;;;;;;18.86;43.02;101591.50;4904176;28;97972;-75
2021/06/13 11:25:42;;;;;;;4.32;1.27;;;;;;;19.25;42.19;101593.88;4934844;28;97810;-82
2021/06/13 11:28:15;;;;;;;5.68;1.77;;;;;;;18.97;42.74;101582.03;4938834;28;98396;-84
2021/06/13 11:30:50;;;;;;;5.97;1.45;;;;;;;18.59;43.63;101597.63;4939853;28;98672;-74
2021/06/13 11:33:36;;;;;;;4.70;1.30;;;;;;;17.99;45.04;101598.06;4903121;28;98215;-76